Time;durP1;ratioP1;P1;durP2;ratioP2;P2;SDS_P1;SDS_P2;PMS_P1;PMS_P2;Temp;Humidity;BMP_temperature;BMP_pressure;BME280_temperature;BME280_humidity;BME280_pressure;Samples;Min_cycle;Max_cycle;Signal;HPM_P1;HPM_P2
2021/01/08 00:01:09;;;;;;;11.87;5.73;;;6.70;99.90;;;6.24;81.57;101100.75;5073743;28;19916;-71
2021/01/08 00:03:36;;;;;;;8.83;5.47;;;6.60;99.90;;;6.67;81.57;101132.97;5073656;28;20037;-71
2021/01/08 00:06:04;;;;;;;8.47;5.13;;;6.70;99.90;;;6.68;81.44;101155.78;5073100;28;20040;-72
2021/01/08 00:08:32;;;;;;;8.40;4.57;;;6.70;99.90;;;6.81;81.52;101149.84;5072192;28;20485;-74
2021/01/08 00:11:00;;;;;;;13.03;5.50;;;6.70;99.90;;;6.79;81.33;101152.44;5073162;28;20048;-75
2021/01/08 00:13:28;;;;;;;13.37;5.23;;;6.80;99.90;;;6.66;81.38;101155.72;5073077;28;20436;-77
2021/01/08 00:15:55;;;;;;;9.70;4.97;;;6.70;99.90;;;6.81;81.54;101157.72;5073242;28;20040;-75
2021/01/08 00:18:23;;;;;;;10.07;5.60;;;6.70;99.90;;;6.79;81.25;101155.09;5073213;28;20045;-75
2021/01/08 00:20:50;;;;;;;16.03;5.27;;;6.70;99.90;;;6.78;81.31;101142.78;5073230;28;20072;-75
2021/01/08 00:23:18;;;;;;;18.80;6.73;;;6.70;99.90;;;6.87;80.69;101155.19;5073184;28;20044;-75
2021/01/08 00:25:51;;;;;;;10.20;5.37;;;6.80;99.90;;;6.85;81.19;101162.19;5071875;28;20052;-75
2021/01/08 00:28:19;;;;;;;11.07;5.43;;;6.80;99.90;;;7.02;80.65;101144.91;5072903;28;20052;-75
2021/01/08 00:30:47;;;;;;;8.33;5.07;;;6.90;99.90;;;7.04;80.35;101159.84;5073029;28;20036;-75
2021/01/08 00:33:15;;;;;;;11.90;5.37;;;6.90;99.90;;;6.84;81.00;101134.09;5073070;28;20045;-75
2021/01/08 00:35:42;;;;;;;12.13;5.47;;;6.80;99.90;;;7.11;80.64;101166.06;5072955;28;20127;-75
2021/01/08 00:38:10;;;;;;;9.77;5.53;;;6.90;99.90;;;7.07;79.99;101166.88;5072907;28;20531;-74
2021/01/08 00:40:37;;;;;;;8.80;4.97;;;7.00;99.90;;;7.10;79.26;101170.41;5072887;28;20148;-75
2021/01/08 00:43:05;;;;;;;9.70;5.53;;;7.10;99.90;;;6.90;80.20;101160.47;5072714;28;20098;-74
2021/01/08 00:45:33;;;;;;;10.73;5.37;;;6.90;99.90;;;6.70;80.82;101154.91;5072724;28;20040;-75
2021/01/08 00:48:02;;;;;;;9.93;6.33;;;6.80;99.90;;;6.74;80.90;101155.84;5071394;28;20054;-75
2021/01/08 00:50:30;;;;;;;11.47;5.47;;;6.60;99.90;;;6.84;80.60;101158.66;5071414;28;20044;-75
2021/01/08 00:52:57;;;;;;;11.03;5.30;;;6.80;99.90;;;6.84;80.77;101157.75;5070705;28;20040;-74
2021/01/08 00:55:25;;;;;;;8.53;5.03;;;6.80;99.90;;;7.03;80.82;101152.78;5071156;28;20040;-75
2021/01/08 00:58:01;;;;;;;12.63;5.40;;;6.90;99.90;;;6.93;81.00;101153.53;5071377;28;20044;-74
2021/01/08 01:00:28;;;;;;;11.43;4.60;;;6.80;99.90;;;7.08;80.45;101155.50;5071210;28;20398;-75
2021/01/08 01:02:56;;;;;;;13.87;5.97;;;7.00;99.90;;;6.77;80.33;101154.19;5072649;28;20441;-74
2021/01/08 01:05:24;;;;;;;11.90;5.73;;;6.80;99.90;;;6.74;81.08;101145.34;5072505;28;20040;-74
2021/01/08 01:07:51;;;;;;;14.13;5.20;;;6.80;99.90;;;7.00;80.73;101163.28;5072299;28;20374;-74
2021/01/08 01:10:19;;;;;;;9.70;5.87;;;6.90;99.90;;;6.95;80.46;101138.66;5072227;28;20115;-74
2021/01/08 01:12:46;;;;;;;10.37;5.10;;;7.00;99.90;;;7.13;80.53;101159.97;5072787;28;20377;-75
2021/01/08 01:15:17;;;;;;;8.30;4.70;;;7.00;99.90;;;7.18;80.58;101158.28;5072695;28;20182;-74
2021/01/08 01:17:44;;;;;;;12.03;5.30;;;7.10;99.90;;;7.21;80.33;101152.16;5072466;28;20037;-75
2021/01/08 01:20:13;;;;;;;11.73;5.73;;;7.10;99.90;;;6.68;80.57;101079.56;5072432;28;20075;-74
2021/01/08 01:22:42;;;;;;;9.57;6.13;;;7.10;99.90;;;7.17;80.41;101155.63;5072383;28;20358;-75
2021/01/08 01:25:10;;;;;;;11.37;5.07;;;7.10;99.90;;;7.26;80.43;101161.00;5072162;28;20040;-74
2021/01/08 01:27:38;;;;;;;10.10;5.40;;;7.10;99.90;;;7.28;80.19;101161.91;5072066;28;20444;-74
2021/01/08 01:30:10;;;;;;;13.77;6.20;;;7.30;99.90;;;7.41;80.11;101158.59;5072279;28;20047;-76
2021/01/08 01:32:37;;;;;;;14.53;5.70;;;7.30;99.90;;;7.48;79.87;101163.06;5072607;28;20462;-75
2021/01/08 01:35:06;;;;;;;8.17;4.47;;;7.40;99.90;;;7.33;79.87;101160.25;5072045;28;20046;-75
2021/01/08 01:37:34;;;;;;;10.97;5.30;;;7.30;99.90;;;7.20;80.88;101160.94;5071827;28;20142;-74
2021/01/08 01:40:03;;;;;;;9.00;5.40;;;7.20;99.90;;;6.99;81.08;101161.50;5071886;28;20033;-75
2021/01/08 01:42:30;;;;;;;11.40;4.97;;;7.00;99.90;;;7.01;81.58;101172.94;5072410;28;20040;-75
2021/01/08 01:44:57;;;;;;;10.40;5.43;;;6.90;99.90;;;6.83;81.51;101167.38;5072126;28;20032;-75
2021/01/08 01:47:26;;;;;;;11.67;5.20;;;6.70;99.90;;;7.18;81.12;101176.69;5072066;28;20371;-75
2021/01/08 01:49:54;;;;;;;8.70;4.40;;;7.00;99.90;;;7.25;80.33;101175.03;5071779;28;20456;-75
2021/01/08 01:52:24;;;;;;;10.37;4.70;;;7.10;99.90;;;7.34;79.73;101185.66;5072355;28;20064;-75
2021/01/08 01:54:51;;;;;;;6.33;4.93;;;7.20;99.90;;;6.66;79.56;101061.13;5071875;28;20282;-75
2021/01/08 01:57:20;;;;;;;8.63;4.97;;;7.30;99.90;;;7.46;79.40;101187.59;5071988;28;20056;-75
2021/01/08 01:59:47;;;;;;;7.73;5.00;;;7.40;99.90;;;7.53;79.35;101190.31;5071712;28;20078;-75
2021/01/08 02:02:24;;;;;;;7.77;5.07;;;7.40;99.90;;;7.48;79.20;101194.63;5072063;28;20110;-75
2021/01/08 02:04:55;;;;;;;11.17;4.97;;;7.40;99.90;;;7.38;79.47;101194.47;5072718;28;20040;-75
2021/01/08 02:07:28;;;;;;;10.07;4.77;;;7.30;99.90;;;6.85;78.99;101076.28;5076004;28;20090;-75
2021/01/08 02:09:59;;;;;;;6.10;4.73;;;7.40;99.90;;;7.43;78.59;101187.56;5075764;28;20041;-75
2021/01/08 02:12:30;;;;;;;11.30;4.10;;;7.40;99.90;;;6.91;78.79;101141.25;5075783;28;20115;-75
2021/01/08 02:14:58;;;;;;;;;;;7.20;99.90;;;7.04;79.27;101178.25;5076359;28;20109;-75
2021/01/08 02:17:30;;;;;;;7.60;4.93;;;7.10;99.90;;;7.03;79.05;101162.44;5075328;28;19964;-75
2021/01/08 02:20:04;;;;;;;7.33;4.30;;;7.10;99.90;;;7.19;79.24;101186.34;5075694;28;20430;-75
2021/01/08 02:22:41;;;;;;;7.93;5.03;;;7.20;99.90;;;7.28;78.94;101193.47;5075600;28;20460;-74
2021/01/08 02:25:13;;;;;;;6.73;4.97;;;7.20;99.90;;;7.37;79.19;101198.88;5075289;28;20041;-75
2021/01/08 02:27:46;;;;;;;8.43;5.80;;;7.30;99.90;;;7.35;79.07;101204.97;5075495;28;20032;-75
2021/01/08 02:30:16;;;;;;;11.07;5.57;;;7.20;99.90;;;7.32;79.68;101202.31;5075639;28;20044;-75
2021/01/08 02:32:44;;;;;;;7.67;4.83;;;7.20;99.90;;;7.45;79.03;101197.25;5075121;28;20037;-75
2021/01/08 02:35:12;;;;;;;6.53;4.50;;;7.30;99.90;;;7.58;79.29;101203.53;5075276;28;20044;-75
2021/01/08 02:37:43;;;;;;;6.77;4.40;;;7.40;99.90;;;7.51;78.22;101199.94;5074985;28;20033;-75
2021/01/08 02:40:14;;;;;;;9.63;4.77;;;7.30;99.90;;;7.46;77.88;101201.63;5075344;28;20040;-76
2021/01/08 02:42:43;;;;;;;6.60;4.18;;;7.30;99.90;;;7.48;77.42;101199.00;5075250;28;20067;-75
2021/01/08 02:45:12;;;;;;;6.10;4.90;;;7.40;99.90;;;7.45;77.89;101199.88;5075216;28;20028;-75
2021/01/08 02:47:40;;;;;;;7.73;4.93;;;7.30;99.90;;;7.42;77.65;101198.94;5074851;28;20417;-74
2021/01/08 02:50:10;;;;;;;7.67;4.17;;;7.30;99.90;;;7.51;77.32;101205.19;5075019;28;20063;-75
2021/01/08 02:52:43;;;;;;;6.83;4.00;;;7.40;99.90;;;7.52;77.72;101206.09;5074701;28;20044;-75
2021/01/08 02:55:13;;;;;;;6.07;4.20;;;7.40;99.90;;;7.25;77.95;101156.63;5075323;28;20102;-74
2021/01/08 02:57:44;;;;;;;7.28;4.82;;;7.40;99.90;;;7.47;77.36;101202.53;5074845;28;20051;-75
2021/01/08 03:00:13;;;;;;;8.13;4.80;;;7.30;99.90;;;7.27;77.42;101168.94;5074954;28;20178;-75
2021/01/08 03:02:41;;;;;;;5.27;4.77;;;7.30;99.90;;;7.51;77.93;101207.81;5074605;28;20072;-75
2021/01/08 03:05:11;;;;;;;6.77;4.80;;;7.40;99.90;;;7.60;77.79;101204.44;5074567;28;20047;-75
2021/01/08 03:07:38;;;;;;;9.10;4.17;;;7.40;99.90;;;7.63;77.68;101208.00;5073471;28;20045;-75
2021/01/08 03:10:13;;;;;;;7.90;4.60;;;7.40;99.90;;;7.44;77.37;101179.66;5074381;28;20052;-74
2021/01/08 03:12:49;;;;;;;8.70;5.10;;;7.40;99.90;;;7.61;77.85;101212.34;5073001;28;20482;-75
2021/01/08 03:15:16;;;;;;;7.83;5.00;;;7.40;99.90;;;7.54;77.77;101207.88;5074417;28;20474;-74
2021/01/08 03:17:45;;;;;;;8.07;4.43;;;7.40;99.90;;;7.69;77.80;101200.19;5073184;28;20064;-75
2021/01/08 03:20:17;;;;;;;8.57;4.47;;;7.40;99.90;;;7.76;77.91;101209.03;5073257;28;20477;-75
2021/01/08 03:22:44;;;;;;;;;;;7.50;99.90;;;7.63;77.55;101168.50;5074732;28;20543;-75
2021/01/08 03:25:13;;;;;;;6.40;5.00;;;7.60;99.90;;;7.82;77.26;101212.63;5074499;28;19924;-75
2021/01/08 03:27:41;;;;;;;7.23;4.70;;;7.60;99.90;;;7.82;77.23;101217.03;5072943;28;20044;-75
2021/01/08 03:30:11;;;;;;;9.60;5.20;;;7.60;99.90;;;7.80;76.81;101195.91;5073280;28;20121;-75
2021/01/08 03:32:38;;;;;;;7.53;4.68;;;7.70;99.90;;;7.68;76.94;101187.91;5074103;28;20061;-75
2021/01/08 03:35:09;;;;;;;6.03;3.97;;;7.60;99.90;;;7.75;76.77;101194.09;5073178;28;20043;-75
2021/01/08 03:37:37;;;;;;;;;;;7.50;99.90;;;7.84;76.17;101194.22;5073366;28;20041;-76
2021/01/08 03:40:07;;;;;;;7.97;4.50;;;7.60;99.90;;;7.65;76.95;101201.00;5073855;28;19963;-75
2021/01/08 03:42:36;;;;;;;9.03;5.17;;;7.50;99.90;;;7.37;76.74;101162.06;5074034;28;20048;-74
2021/01/08 03:45:05;;;;;;;8.33;4.77;;;7.50;99.90;;;7.57;77.12;101200.00;5073761;28;20543;-75
2021/01/08 03:47:34;;;;;;;8.30;4.70;;;7.40;99.90;;;7.55;77.19;101195.63;5074008;28;20058;-75
2021/01/08 03:50:01;;;;;;;7.67;4.00;;;7.30;99.90;;;7.59;77.07;101193.03;5073900;28;20036;-76
2021/01/08 03:52:29;;;;;;;14.23;4.73;;;7.40;99.90;;;7.51;76.95;101194.66;5073797;28;20044;-76
2021/01/08 03:54:56;;;;;;;8.20;4.53;;;7.30;99.90;;;7.48;77.43;101199.00;5073562;28;20102;-75
2021/01/08 03:57:26;;;;;;;10.90;5.18;;;7.30;99.90;;;7.40;77.71;101200.66;5073728;28;20044;-75
2021/01/08 03:59:54;;;;;;;11.53;4.70;;;7.20;99.90;;;7.48;77.81;101199.00;5073459;28;20064;-76
2021/01/08 04:02:21;;;;;;;9.20;4.93;;;7.30;99.90;;;7.53;77.68;101197.34;5073661;28;20127;-75
2021/01/08 04:04:49;;;;;;;6.23;4.93;;;7.30;99.90;;;7.57;77.60;101205.28;5073324;28;20091;-76
2021/01/08 04:07:16;;;;;;;9.80;4.80;;;7.30;99.90;;;7.69;77.13;101202.81;5073632;28;20091;-76
2021/01/08 04:09:44;;;;;;;8.07;4.65;;;7.40;99.90;;;7.78;76.73;101196.78;5073553;28;20037;-76
2021/01/08 04:12:11;;;;;;;7.10;4.07;;;7.50;99.90;;;7.84;76.39;101207.41;5073395;28;20036;-76
2021/01/08 04:14:38;;;;;;;6.03;4.20;;;7.60;99.90;;;7.79;76.52;101209.06;5073393;28;20499;-76
2021/01/08 04:17:07;;;;;;;7.60;4.25;;;7.60;99.90;;;7.70;76.45;101175.63;5073048;28;20032;-76
2021/01/08 04:19:34;;;;;;;7.23;4.07;;;7.70;99.90;;;7.90;76.18;101210.06;5073039;28;20056;-76
2021/01/08 04:22:01;;;;;;;6.10;3.47;;;7.70;99.90;;;7.91;75.97;101206.59;5073008;28;20036;-76
2021/01/08 04:24:29;;;;;;;6.53;4.40;;;7.70;99.90;;;7.84;75.79;101207.41;5073197;28;20115;-75
2021/01/08 04:26:56;;;;;;;5.93;4.33;;;7.70;99.90;;;7.68;76.23;101193.16;5073048;28;20431;-76
2021/01/08 04:29:23;;;;;;;6.43;4.20;;;7.70;99.90;;;5.89;76.32;100868.28;5072872;28;20044;-76
2021/01/08 04:31:51;;;;;;;4.70;4.20;;;7.60;99.90;;;7.87;76.12;101200.41;5072722;28;20466;-76
2021/01/08 04:34:19;;;;;;;9.83;4.00;;;7.70;99.90;;;7.84;75.83;101208.25;5073044;28;20063;-75
2021/01/08 04:36:46;;;;;;;4.67;4.33;;;7.70;99.90;;;7.70;75.93;101174.75;5072746;28;20036;-76
2021/01/08 04:39:14;;;;;;;5.47;3.60;;;7.60;99.90;;;7.81;76.15;101216.13;5072712;28;20393;-75
2021/01/08 04:41:42;;;;;;;5.80;3.95;;;7.60;99.90;;;7.79;76.15;101211.69;5072920;28;20113;-76
2021/01/08 04:44:10;;;;;;;4.47;4.07;;;7.60;99.90;;;7.78;76.49;101205.53;5071576;28;20041;-75
2021/01/08 04:46:38;;;;;;;4.40;4.00;;;7.60;99.90;;;7.67;76.66;101209.81;5071585;28;20105;-76
2021/01/08 04:49:08;;;;;;;4.33;4.03;;;7.60;99.90;;;7.83;76.87;101208.25;5072807;28;20041;-74
2021/01/08 04:51:37;;;;;;;5.47;4.53;;;7.60;99.90;;;7.78;76.72;101202.91;5072658;28;20473;-75
2021/01/08 04:54:06;;;;;;;5.93;3.95;;;7.60;99.90;;;7.85;76.84;101210.03;5072736;28;20048;-76
2021/01/08 04:56:44;;;;;;;5.50;4.53;;;7.70;99.90;;;7.79;76.64;101202.06;5072542;28;20466;-76
2021/01/08 04:59:11;;;;;;;5.20;4.80;;;7.70;99.90;;;7.86;76.57;101213.53;5072231;28;20041;-76
2021/01/08 05:01:39;;;;;;;5.07;4.30;;;7.60;99.90;;;7.77;77.12;101206.44;5072743;28;20040;-76
2021/01/08 05:04:07;;;;;;;4.57;4.17;;;7.70;99.90;;;7.81;76.66;101216.13;5072325;28;20556;-74
2021/01/08 05:06:35;;;;;;;5.60;5.03;;;7.60;99.90;;;7.83;76.90;101218.78;5072517;28;20117;-76
2021/01/08 05:09:03;;;;;;;6.15;4.07;;;7.60;99.90;;;7.68;77.24;101193.16;5071172;28;20052;-75
2021/01/08 05:11:31;;;;;;;7.13;4.63;;;7.60;99.90;;;7.74;77.02;101214.28;5071116;28;20040;-77
2021/01/08 05:14:05;;;;;;;4.97;4.50;;;7.60;99.90;;;7.82;77.40;101220.50;5072563;28;20371;-76
2021/01/08 05:16:33;;;;;;;8.80;4.43;;;7.60;99.90;;;7.64;77.01;101212.41;5072243;28;20070;-75
2021/01/08 05:19:03;;;;;;;5.73;4.17;;;7.60;99.90;;;7.74;76.98;101216.03;5072373;28;20040;-76
2021/01/08 05:21:34;;;;;;;5.60;4.40;;;7.60;99.90;;;7.83;77.02;101226.69;5072146;28;20040;-77
2021/01/08 05:24:04;;;;;;;5.07;4.57;;;7.50;99.90;;;7.67;76.65;101199.28;5072433;28;20424;-76
2021/01/08 05:26:32;;;;;;;5.55;4.35;;;7.60;99.90;;;7.81;77.20;101224.03;5072348;28;20044;-76
2021/01/08 05:29:01;;;;;;;5.77;4.80;;;7.60;99.90;;;7.83;76.83;101224.94;5072345;28;20044;-76
2021/01/08 05:31:31;;;;;;;5.28;3.60;;;7.60;99.90;;;7.79;77.05;101228.41;5070880;28;20098;-75
2021/01/08 05:34:01;;;;;;;6.93;4.33;;;7.60;99.90;;;7.75;76.84;101234.47;5072259;28;20040;-76
2021/01/08 05:36:29;;;;;;;4.20;3.80;;;7.50;99.90;;;7.74;77.18;101235.31;5071012;28;20040;-76
2021/01/08 05:38:58;;;;;;;5.45;4.43;;;7.50;99.90;;;7.74;77.20;101237.09;5072173;28;20049;-76
2021/01/08 05:41:28;;;;;;;4.97;4.50;;;7.50;99.90;;;7.79;77.10;101235.41;5075781;28;20486;-76
2021/01/08 05:43:57;;;;;;;4.30;4.00;;;7.50;99.90;;;7.78;76.99;101237.13;5076129;28;20091;-75
2021/01/08 05:46:27;;;;;;;5.20;4.10;;;7.60;99.90;;;7.72;77.07;101238.84;5074968;28;20094;-76
2021/01/08 05:48:59;;;;;;;4.88;4.47;;;7.50;99.90;;;7.67;77.03;101237.88;5076426;28;20039;-76
2021/01/08 05:51:30;;;;;;;5.63;4.43;;;7.50;99.90;;;7.01;77.30;101122.97;5076204;28;20363;-76
2021/01/08 05:54:00;;;;;;;5.18;4.63;;;7.50;99.90;;;7.74;77.71;101242.38;5075923;28;20115;-75
2021/01/08 05:56:34;;;;;;;5.53;4.63;;;7.50;99.90;;;6.63;77.20;101042.69;5076002;28;20412;-76
2021/01/08 05:59:04;;;;;;;5.17;4.30;;;7.50;99.90;;;7.73;77.16;101235.31;5076087;28;20040;-75
2021/01/08 06:01:33;;;;;;;7.80;4.68;;;7.60;99.90;;;7.70;76.99;101244.09;5076066;28;20074;-75
2021/01/08 06:04:01;;;;;;;5.60;4.53;;;7.60;99.90;;;7.59;77.22;101236.91;5075722;28;20040;-76
2021/01/08 06:06:40;;;;;;;5.27;4.60;;;7.50;99.90;;;7.52;77.37;101208.72;5075613;28;20040;-76
2021/01/08 06:09:11;;;;;;;8.53;4.53;;;7.50;99.90;;;7.65;77.34;101237.84;5075740;28;20168;-76
2021/01/08 06:11:43;;;;;;;4.87;4.37;;;7.50;99.90;;;7.70;77.29;101254.63;5075833;28;20098;-76
2021/01/08 06:14:12;;;;;;;4.50;4.20;;;7.50;99.90;;;7.71;76.71;101274.78;5075764;28;20097;-76
2021/01/08 06:16:43;;;;;;;4.83;4.33;;;7.50;99.90;;;7.73;76.71;101254.63;5076022;28;20048;-76
2021/01/08 06:19:14;;;;;;;5.30;4.50;;;7.50;99.90;;;7.71;77.13;101259.00;5075707;28;20040;-76
2021/01/08 06:21:44;;;;;;;4.90;4.05;;;7.50;99.90;;;7.59;77.00;101261.47;5075976;28;20093;-76
2021/01/08 06:24:13;;;;;;;6.97;5.30;;;7.40;99.90;;;7.52;77.22;101256.09;5074222;28;20053;-76
2021/01/08 06:26:42;;;;;;;5.33;4.63;;;7.30;99.90;;;7.47;77.24;101250.75;5075352;28;20044;-76
2021/01/08 06:29:19;;;;;;;4.63;4.23;;;7.20;99.90;;;7.47;77.49;101248.13;5074136;28;20056;-75
2021/01/08 06:31:48;;;;;;;5.43;4.87;;;7.20;99.90;;;7.46;77.78;101251.63;5075335;28;20029;-76
2021/01/08 06:34:24;;;;;;;6.03;4.75;;;7.20;99.90;;;7.52;77.58;101248.19;5075487;28;20098;-76
2021/01/08 06:37:11;;;;;;;5.37;4.37;;;7.30;99.90;;;7.41;77.68;101244.53;5075030;28;20461;-76
2021/01/08 06:39:41;;;;;;;4.57;4.17;;;7.20;99.90;;;7.41;78.04;101253.31;5075313;28;20543;-76
2021/01/08 06:42:10;;;;;;;5.40;4.90;;;7.20;99.90;;;7.38;77.91;101261.16;5075522;28;20036;-77
2021/01/08 06:44:38;;;;;;;5.10;4.70;;;7.10;99.90;;;7.38;78.01;101266.41;5074904;28;20566;-76
2021/01/08 06:47:06;;;;;;;7.07;4.53;;;7.10;99.90;;;7.18;78.06;101223.16;5073828;28;20048;-76
2021/01/08 06:49:40;;;;;;;4.87;4.47;;;7.20;99.90;;;7.35;78.25;101269.03;5075053;28;20165;-76
2021/01/08 06:52:08;;;;;;;5.33;4.80;;;7.20;99.90;;;7.39;77.81;101270.84;5074765;28;20044;-76
2021/01/08 06:54:40;;;;;;;5.37;4.87;;;7.20;99.90;;;6.93;78.13;101207.88;5074674;28;20112;-76
2021/01/08 06:57:18;;;;;;;5.43;4.13;;;7.20;99.90;;;7.34;77.82;101269.88;5075044;28;20036;-75
2021/01/08 06:59:54;;;;;;;5.03;4.40;;;7.10;99.90;;;7.41;78.22;101277.00;5074435;28;20064;-76
2021/01/08 07:02:24;;;;;;;5.20;4.70;;;7.20;99.90;;;6.71;78.04;101153.19;5075050;28;20094;-76
2021/01/08 07:04:53;;;;;;;7.45;4.60;;;7.20;99.90;;;7.41;78.28;101287.53;5075132;28;20060;-76
2021/01/08 07:07:24;;;;;;;5.20;4.73;;;7.20;99.90;;;7.40;78.29;101280.47;5073405;28;20420;-76
2021/01/08 07:09:52;;;;;;;5.88;5.22;;;7.20;99.90;;;7.32;77.96;101266.31;5074583;28;20378;-76
2021/01/08 07:12:23;;;;;;;5.33;4.93;;;7.10;99.90;;;7.41;78.31;101292.81;5074630;28;20123;-75
2021/01/08 07:14:51;;;;;;;5.93;5.43;;;7.20;99.90;;;7.41;78.21;101291.91;5074734;28;20037;-76
2021/01/08 07:17:30;;;;;;;5.93;5.40;;;7.20;99.90;;;7.42;78.26;101294.56;5074250;28;20052;-75
2021/01/08 07:20:01;;;;;;;5.63;5.07;;;7.20;99.90;;;7.47;78.12;101308.66;5074631;28;20363;-76
2021/01/08 07:22:37;;;;;;;5.93;5.33;;;7.30;99.90;;;6.68;78.05;101175.03;5073216;28;20082;-76
2021/01/08 07:25:10;;;;;;;7.90;5.10;;;7.30;99.90;;;7.53;78.17;101319.28;5074461;28;20143;-75
2021/01/08 07:27:42;;;;;;;5.47;5.07;;;7.30;99.90;;;7.49;77.60;101316.59;5074484;28;20044;-76
2021/01/08 07:30:11;;;;;;;5.93;5.33;;;7.30;99.90;;;7.53;77.70;101318.41;5074079;28;20118;-76
2021/01/08 07:32:41;;;;;;;6.43;4.90;;;7.30;99.90;;;7.45;77.55;101315.66;5073994;28;20043;-76
2021/01/08 07:35:19;;;;;;;4.53;4.23;;;7.30;99.90;;;6.89;77.75;101222.69;5074319;28;20278;-76
2021/01/08 07:38:03;;;;;;;6.23;5.67;;;7.20;99.90;;;6.75;77.33;101199.69;5073985;28;20041;-76
2021/01/08 07:40:33;;;;;;;5.80;5.30;;;7.20;99.90;;;7.46;77.83;101325.31;5073884;28;20482;-76
2021/01/08 07:43:06;;;;;;;5.27;4.87;;;7.30;99.90;;;6.96;78.05;101244.72;5074219;28;20106;-75
2021/01/08 07:45:52;;;;;;;5.33;4.83;;;7.20;99.90;;;7.40;77.97;101321.69;5074293;28;20283;-75
2021/01/08 07:48:22;;;;;;;5.23;4.83;;;7.20;99.90;;;7.39;77.90;101326.09;5073864;28;20040;-76
2021/01/08 07:50:56;;;;;;;5.45;4.57;;;7.20;99.90;;;7.44;77.87;101332.31;5074333;28;20086;-76
2021/01/08 07:53:50;;;;;;;5.30;4.90;;;7.20;99.90;;;7.42;77.59;101330.50;5073694;28;20097;-83
2021/01/08 07:56:20;;;;;;;4.77;4.20;;;7.20;99.90;;;7.28;77.91;101328.53;5054514;28;20117;-78
2021/01/08 07:58:58;;;;;;;5.90;5.38;;;7.20;99.90;;;7.47;77.64;101344.63;5073752;28;20066;-80
2021/01/08 08:01:26;;;;;;;8.37;6.47;;;7.20;99.90;;;7.50;77.48;101342.03;5073800;28;20110;-73
2021/01/08 08:03:59;;;;;;;6.67;5.97;;;7.30;99.90;;;7.50;78.04;101345.56;5073156;28;20490;-77
2021/01/08 08:06:29;;;;;;;6.67;5.97;;;7.30;99.90;;;7.56;77.89;101356.19;5073378;28;20058;-77
2021/01/08 08:09:01;;;;;;;9.15;6.28;;;7.30;99.90;;;7.61;77.54;101365.03;5073311;28;20040;-76
2021/01/08 08:11:32;;;;;;;5.67;5.07;;;7.30;99.90;;;7.65;77.61;101371.22;5073035;28;20040;-74
2021/01/08 08:14:01;;;;;;;6.57;5.00;;;7.40;99.90;;;7.64;77.78;101370.34;5073165;28;20058;-76
2021/01/08 08:16:34;;;;;;;5.63;5.13;;;7.40;99.90;;;7.65;77.45;101380.00;5072937;28;20486;-78
2021/01/08 08:19:03;;;;;;;5.90;5.37;;;7.40;99.90;;;7.66;77.47;101376.53;5073305;28;20032;-77
2021/01/08 08:21:30;;;;;;;6.03;5.53;;;7.40;99.90;;;7.70;77.38;101386.25;5073238;28;20064;-78
2021/01/08 08:24:00;;;;;;;11.13;5.57;;;7.50;99.90;;;7.67;77.39;101380.03;5073261;28;20040;-77
2021/01/08 08:26:31;;;;;;;6.67;5.20;;;7.50;99.90;;;7.73;77.08;101381.03;5071548;28;20045;-78
2021/01/08 08:29:01;;;;;;;6.77;5.57;;;7.50;99.90;;;7.74;77.55;101387.19;5073147;28;20086;-73
2021/01/08 08:31:30;;;;;;;5.68;5.18;;;7.50;99.90;;;7.60;77.48;101360.63;5073122;28;20044;-73
2021/01/08 08:33:59;;;;;;;6.55;5.53;;;7.50;99.90;;;7.70;77.05;101386.25;5072737;28;20055;-75
2021/01/08 08:36:31;;;;;;;6.93;6.10;;;7.60;99.90;;;7.83;77.37;101401.38;5072962;28;20107;-74
2021/01/08 08:39:05;;;;;;;6.97;6.27;;;7.60;99.90;;;7.38;77.24;101324.31;5073184;28;20440;-75
2021/01/08 08:41:37;;;;;;;6.37;5.77;;;7.60;99.90;;;7.77;77.11;101393.38;5072839;28;20056;-74
2021/01/08 08:44:08;;;;;;;6.07;5.57;;;7.60;99.90;;;7.79;77.26;101414.44;5072983;28;20037;-73
2021/01/08 08:46:48;;;;;;;6.10;5.60;;;7.50;99.90;;;7.74;77.11;101393.31;5088256;28;20477;-78
2021/01/08 08:49:18;;;;;;;6.18;5.15;;;7.50;99.90;;;7.76;77.52;101412.66;5073038;28;20043;-75
2021/01/08 08:51:48;;;;;;;6.63;6.07;;;7.50;99.90;;;7.64;77.31;101386.16;5072290;28;20036;-76
2021/01/08 08:54:16;;;;;;;6.43;5.82;;;7.60;99.90;;;7.65;77.49;101387.91;5072284;28;20488;-78
2021/01/08 08:56:53;;;;;;;6.70;6.00;;;7.60;99.90;;;7.86;77.55;101424.19;5072242;28;20068;-78
2021/01/08 08:59:38;;;;;;;6.75;6.03;;;7.60;99.90;;;7.92;77.28;101419.03;5072630;28;20051;-78
2021/01/08 09:02:06;;;;;;;6.30;5.70;;;7.60;99.90;;;7.97;77.44;101427.91;5072674;28;20036;-78
2021/01/08 09:04:34;;;;;;;6.32;5.53;;;7.70;99.90;;;7.99;77.54;101426.19;5072372;28;20499;-79
2021/01/08 09:07:10;;;;;;;5.50;5.03;;;7.80;99.90;;;8.05;76.79;101428.91;5071178;28;20047;-79
2021/01/08 09:09:41;;;;;;;6.70;5.90;;;7.80;99.90;;;8.03;76.42;101433.28;5072573;28;20468;-80
2021/01/08 09:12:33;;;;;;;5.53;5.03;;;7.80;99.90;;;8.01;76.55;101435.84;5072330;28;20036;-79
2021/01/08 09:15:17;;;;;;;5.50;5.10;;;7.80;99.90;;;8.08;76.19;101437.75;5071199;28;20132;-79
2021/01/08 09:17:49;;;;;;;5.80;5.30;;;7.80;99.90;;;8.20;76.54;101443.19;5072065;28;20402;-79
2021/01/08 09:20:22;;;;;;;5.93;5.15;;;7.90;99.90;;;8.52;76.36;101445.41;5072135;28;20037;-80
2021/01/08 09:22:53;;;;;;;5.43;5.03;;;8.20;99.90;;;8.75;75.94;101454.50;5072280;28;20036;-79
2021/01/08 09:25:23;;;;;;;6.45;6.03;;;8.50;99.90;;;9.03;74.83;101451.31;5072020;28;20036;-79
2021/01/08 09:27:50;;;;;;;6.15;5.07;;;8.80;99.90;;;9.05;74.58;101391.53;5072288;28;20063;-80
2021/01/08 09:30:20;;;;;;;5.63;5.20;;;9.10;99.90;;;9.57;74.26;101420.16;5072154;28;20127;-81
2021/01/08 09:32:48;;;;;;;5.88;5.15;;;9.50;99.90;;;10.13;72.71;101454.09;5070830;28;20474;-74
2021/01/08 09:35:16;;;;;;;5.05;4.57;;;9.90;99.90;;;10.36;72.02;101453.34;5072461;28;20036;-76
2021/01/08 09:37:51;;;;;;;4.88;4.43;;;10.20;99.90;;;10.69;71.52;101442.94;5070799;28;20048;-70
2021/01/08 09:40:20;;;;;;;7.32;5.18;;;10.60;99.90;;;11.18;69.90;101470.47;5072008;28;20090;-72
2021/01/08 09:42:48;;;;;;;6.97;5.50;;;11.00;99.90;;;11.61;68.55;101467.00;5070684;28;20079;-73
2021/01/08 09:45:24;;;;;;;6.70;4.60;;;11.40;99.90;;;11.93;66.06;101468.81;5071754;28;20040;-73
2021/01/08 09:47:54;;;;;;;5.03;4.38;;;11.90;99.90;;;12.17;65.52;101460.84;5072129;28;20051;-74
2021/01/08 09:50:26;;;;;;;6.22;5.10;;;12.10;99.90;;;12.43;64.52;101478.50;5071876;28;20158;-72
2021/01/08 09:52:58;;;;;;;5.43;4.90;;;12.30;99.90;;;12.43;63.37;101461.69;5072236;28;20079;-71
2021/01/08 09:55:28;;;;;;;6.10;4.80;;;12.50;99.90;;;12.76;62.75;101464.22;5071780;28;20036;-72
2021/01/08 09:57:59;;;;;;;7.30;4.78;;;12.80;99.90;;;12.98;61.58;101497.78;5072112;28;20458;-74
2021/01/08 10:00:34;;;;;;;5.72;4.10;;;12.90;99.90;;;12.56;61.30;101434.25;5071772;28;20063;-72
2021/01/08 10:03:05;;;;;;;5.55;4.03;;;12.80;99.90;;;12.92;60.60;101500.47;5070669;28;20072;-73
2021/01/08 10:05:35;;;;;;;5.68;4.53;;;12.80;99.90;;;12.96;59.40;101499.56;5071595;28;20097;-73
2021/01/08 10:08:05;;;;;;;4.90;4.40;;;12.80;99.90;;;13.01;58.80;101504.84;5071984;28;20052;-73
2021/01/08 10:10:41;;;;;;;4.63;3.95;;;12.90;99.90;;;12.87;59.14;101510.22;5071550;28;20048;-70
2021/01/08 10:13:20;;;;;;;6.22;4.63;;;12.80;99.90;;;12.89;60.04;101492.50;5071356;28;20033;-71
2021/01/08 10:15:53;;;;;;;5.80;4.30;;;12.80;99.90;;;12.86;59.36;101505.78;5071571;28;20043;-71
2021/01/08 10:18:24;;;;;;;4.45;4.05;;;12.80;99.90;;;12.91;59.01;101511.97;5087144;28;20130;-70
2021/01/08 10:20:54;;;;;;;4.85;4.30;;;12.80;99.90;;;12.70;58.82;101485.47;5071379;28;20037;-73
2021/01/08 10:23:24;;;;;;;4.13;3.80;;;12.80;99.90;;;12.88;58.97;101517.28;5071799;28;20054;-70
2021/01/08 10:25:52;;;;;;;4.63;4.33;;;12.90;99.90;;;13.15;59.22;101511.00;5072283;28;20032;-73
2021/01/08 10:28:22;;;;;;;4.45;4.15;;;13.00;99.90;;;13.24;58.63;101514.50;5074218;28;20044;-75
2021/01/08 10:30:56;;;;;;;4.60;3.70;;;13.10;99.90;;;12.88;57.17;101472.16;5075134;28;20044;-74
2021/01/08 10:33:27;;;;;;;4.45;3.85;;;13.10;99.90;;;12.90;57.09;101518.16;5073887;28;20036;-75
2021/01/08 10:35:58;;;;;;;4.50;4.10;;;12.90;99.90;;;12.27;57.53;101470.56;5075669;28;20039;-76
2021/01/08 10:38:26;;;;;;;3.95;3.60;;;12.60;99.90;;;12.26;57.89;101509.47;5075225;28;20389;-77